Time;durP1;ratioP1;P1;durP2;ratioP2;P2;SDS_P1;SDS_P2;PMS_P1;PMS_P2;Temp;Humidity;BMP_temperature;BMP_pressure;BME280_temperature;BME280_humidity;BME280_pressure;Samples;Min_cycle;Max_cycle;Signal;HPM_P1;HPM_P2
2024/01/02 09:15:30;;;;;;;;;5.67;4.00;;;;;;;;5892570;22;45911;-77
2024/01/02 09:17:55;;;;;;;;;0.00;0.00;;;;;;;;5030481;28;46161;-79
2024/01/02 09:20:20;;;;;;;;;0.00;0.00;;;;;;;;5037535;28;45330;-76
2024/01/02 09:22:45;;;;;;;;;0.00;0.00;;;;;;;;5038742;28;45380;-76
2024/01/02 09:25:11;;;;;;;;;1.67;0.00;;;;;;;;5037136;28;45574;-77
2024/01/02 09:27:37;;;;;;;;;1.00;1.00;;;;;;;;5032861;28;45977;-77
2024/01/02 09:30:04;;;;;;;;;0.00;0.00;;;;;;;;5037687;28;45221;-76
2024/01/02 09:32:30;;;;;;;;;0.00;0.00;;;;;;;;5050879;28;45244;-76
2024/01/02 09:34:55;;;;;;;;;2.33;0.00;;;;;;;;5037541;28;45574;-76
2024/01/02 09:37:21;;;;;;;;;1.00;0.00;;;;;;;;5035352;28;45402;-75
2024/01/02 09:39:46;;;;;;;;;1.00;0.00;;;;;;;;5038794;28;45235;-77
2024/01/02 09:42:26;;;;;;;;;0.33;0.00;;;;;;;;5037041;28;45564;-76
2024/01/02 09:45:04;;;;;;;;;1.00;0.00;;;;;;;;5052423;28;45957;-79
2024/01/02 09:47:38;;;;;;;;;0.00;0.00;;;;;;;;5035357;28;45294;-78
2024/01/02 09:50:12;;;;;;;;;0.00;0.00;;;;;;;;5038606;28;44765;-77
2024/01/02 09:52:37;;;;;;;;;0.00;0.00;;;;;;;;5036229;28;44716;-78
2024/01/02 09:55:06;;;;;;;;;0.00;0.00;;;;;;;;5037379;28;45477;-77
2024/01/02 09:57:35;;;;;;;;;0.67;0.00;;;;;;;;5039489;28;45335;-75
2024/01/02 10:00:07;;;;;;;;;0.00;0.00;;;;;;;;5037473;28;44865;-75
2024/01/02 10:02:33;;;;;;;;;0.00;0.00;;;;;;;;5038039;28;45299;-76
2024/01/02 10:05:06;;;;;;;;;0.00;0.00;;;;;;;;5037309;28;45541;-76
2024/01/02 10:08:09;;;;;;;;;0.00;0.00;;;;;;;;5039446;28;45411;-76
2024/01/02 10:10:36;;;;;;;;;0.00;0.00;;;;;;;;4996702;28;45523;-79
2024/01/02 10:13:02;;;;;;;;;0.00;0.00;;;;;;;;4996610;28;45526;-75
2024/01/02 10:15:28;;;;;;;;;0.00;0.00;;;;;;;;5013354;28;45466;-75
2024/01/02 10:17:58;;;;;;;;;0.00;0.00;;;;;;;;5049605;28;46993;-75
2024/01/02 10:20:57;;;;;;;;;0.00;0.00;;;;;;;;5035423;28;45150;-77
2024/01/02 10:23:22;;;;;;;;;1.00;0.00;;;;;;;;5027482;28;45518;-76
2024/01/02 10:25:52;;;;;;;;;0.00;0.00;;;;;;;;5034961;28;45426;-76
2024/01/02 10:28:18;;;;;;;;;0.00;0.00;;;;;;;;5038875;28;45685;-75
2024/01/02 10:31:04;;;;;;;;;0.00;0.00;;;;;;;;5032934;28;45320;-75
2024/01/02 10:33:42;;;;;;;;;0.00;0.00;;;;;;;;5033266;28;45351;-75
2024/01/02 10:36:11;;;;;;;;;0.00;0.00;;;;;;;;5036215;28;45622;-76
2024/01/02 10:38:39;;;;;;;;;0.67;0.00;;;;;;;;5039488;28;45388;-76
2024/01/02 10:41:10;;;;;;;;;0.00;0.00;;;;;;;;5038733;28;45226;-75
2024/01/02 10:43:46;;;;;;;;;0.00;0.00;;;;;;;;5042494;28;45643;-76
2024/01/02 10:46:15;;;;;;;;;0.00;0.00;;;;;;;;5039614;28;45387;-75
2024/01/02 10:48:44;;;;;;;;;0.00;0.00;;;;;;;;5042338;28;45371;-75
2024/01/02 10:51:13;;;;;;;;;0.00;0.00;;;;;;;;5039400;28;45362;-77
2024/01/02 10:53:42;;;;;;;;;0.00;0.00;;;;;;;;5041674;28;45344;-76
2024/01/02 10:56:26;;;;;;;;;0.00;0.00;;;;;;;;5034688;28;46445;-76
2024/01/02 10:58:58;;;;;;;;;0.00;0.00;;;;;;;;5041875;28;45501;-77
2024/01/02 11:01:25;;;;;;;;;0.00;0.00;;;;;;;;5032932;28;45309;-78
2024/01/02 11:03:54;;;;;;;;;1.00;0.00;;;;;;;;5041785;28;45389;-78
2024/01/02 11:06:34;;;;;;;;;0.00;0.00;;;;;;;;5037579;28;45510;-76
2024/01/02 11:09:03;;;;;;;;;1.00;0.00;;;;;;;;5040104;28;46892;-76
2024/01/02 11:11:30;;;;;;;;;0.00;0.00;;;;;;;;5038720;28;45502;-75
2024/01/02 11:13:56;;;;;;;;;0.00;0.00;;;;;;;;5041663;28;45340;-77
2024/01/02 11:16:22;;;;;;;;;0.00;0.00;;;;;;;;5038895;28;45244;-75
2024/01/02 11:18:49;;;;;;;;;0.00;0.00;;;;;;;;5041395;28;45267;-76
2024/01/02 11:21:30;;;;;;;;;1.00;0.00;;;;;;;;5035589;28;45444;-75
2024/01/02 11:23:55;;;;;;;;;0.67;0.00;;;;;;;;5040703;28;45317;-75
2024/01/02 11:26:23;;;;;;;;;0.00;0.00;;;;;;;;5036599;28;45349;-76
2024/01/02 11:28:49;;;;;;;;;0.00;0.00;;;;;;;;5030626;28;45240;-76
2024/01/02 11:31:15;;;;;;;;;0.00;0.00;;;;;;;;5031928;28;45417;-76
2024/01/02 11:33:55;;;;;;;;;0.00;0.00;;;;;;;;5031853;28;45259;-76
2024/01/02 11:36:46;;;;;;;;;0.00;0.00;;;;;;;;5035190;28;45358;-75
2024/01/02 11:39:12;;;;;;;;;0.33;0.33;;;;;;;;5034841;28;45228;-76
2024/01/02 11:41:53;;;;;;;;;0.00;0.00;;;;;;;;5035096;28;45457;-76
2024/01/02 11:44:30;;;;;;;;;2.00;0.00;;;;;;;;5052349;28;45276;-76
2024/01/02 11:47:01;;;;;;;;;1.00;0.00;;;;;;;;5034077;28;45458;-76
2024/01/02 11:49:28;;;;;;;;;1.00;0.00;;;;;;;;5041593;28;45559;-75
2024/01/02 11:52:02;;;;;;;;;0.00;0.00;;;;;;;;5035750;28;45442;-75
2024/01/02 11:54:46;;;;;;;;;0.00;0.00;;;;;;;;5057003;28;45278;-75
2024/01/02 11:57:19;;;;;;;;;0.00;0.00;;;;;;;;5034463;28;45385;-76
2024/01/02 11:59:54;;;;;;;;;0.33;0.33;;;;;;;;5029137;28;45529;-77
2024/01/02 12:02:38;;;;;;;;;0.00;0.00;;;;;;;;5036737;28;45437;-75
2024/01/02 12:05:15;;;;;;;;;0.00;0.00;;;;;;;;5039194;28;45366;-75
2024/01/02 12:07:43;;;;;;;;;3.33;2.00;;;;;;;;5040330;28;45569;-75
2024/01/02 12:10:08;;;;;;;;;2.00;0.67;;;;;;;;5039151;28;45356;-75
2024/01/02 12:12:53;;;;;;;;;0.00;0.00;;;;;;;;5032850;28;45312;-76
2024/01/02 12:15:32;;;;;;;;;0.00;0.00;;;;;;;;5038945;28;45286;-76
2024/01/02 12:18:04;;;;;;;;;0.00;0.00;;;;;;;;5036738;28;45274;-76
2024/01/02 12:20:33;;;;;;;;;1.00;0.00;;;;;;;;5037321;28;46251;-77
2024/01/02 12:22:58;;;;;;;;;0.67;0.67;;;;;;;;5039832;28;45496;-75
2024/01/02 12:25:23;;;;;;;;;0.00;0.00;;;;;;;;5037271;28;45430;-75
2024/01/02 12:27:52;;;;;;;;;0.00;0.00;;;;;;;;5038634;28;45495;-75
2024/01/02 12:30:40;;;;;;;;;0.67;0.67;;;;;;;;5037349;28;45427;-76
2024/01/02 12:33:06;;;;;;;;;0.00;0.00;;;;;;;;5038301;28;45442;-76
2024/01/02 12:35:32;;;;;;;;;0.00;0.00;;;;;;;;5036300;28;45297;-76
2024/01/02 12:38:15;;;;;;;;;0.00;0.00;;;;;;;;5039726;28;45324;-76
2024/01/02 12:40:48;;;;;;;;;0.00;0.00;;;;;;;;5034751;28;45644;-75
2024/01/02 12:43:17;;;;;;;;;0.00;0.00;;;;;;;;5036787;28;45290;-75
2024/01/02 12:45:45;;;;;;;;;0.00;0.00;;;;;;;;5034395;28;45354;-75
2024/01/02 12:48:13;;;;;;;;;0.00;0.00;;;;;;;;5040595;28;45481;-76
2024/01/02 12:50:38;;;;;;;;;0.00;0.00;;;;;;;;5035753;28;45524;-75
2024/01/02 12:53:04;;;;;;;;;0.00;0.00;;;;;;;;5040473;28;45271;-77
2024/01/02 12:55:33;;;;;;;;;0.00;0.00;;;;;;;;5035855;28;45347;-76
2024/01/02 12:57:58;;;;;;;;;1.00;0.00;;;;;;;;5036729;28;46529;-76
2024/01/02 13:00:24;;;;;;;;;0.67;0.67;;;;;;;;5035876;28;47159;-76
2024/01/02 13:02:50;;;;;;;;;1.00;0.00;;;;;;;;5034751;28;45436;-75
2024/01/02 13:05:16;;;;;;;;;0.00;0.00;;;;;;;;5034328;28;45342;-75
2024/01/02 13:07:41;;;;;;;;;0.00;0.00;;;;;;;;5038587;28;45319;-75
2024/01/02 13:10:07;;;;;;;;;0.00;0.00;;;;;;;;5037522;28;47181;-76
2024/01/02 13:12:34;;;;;;;;;2.00;0.00;;;;;;;;5034565;28;45431;-76
2024/01/02 13:15:04;;;;;;;;;1.67;1.67;;;;;;;;5038214;28;45449;-76
2024/01/02 13:17:30;;;;;;;;;0.00;0.00;;;;;;;;5035284;28;45335;-76
2024/01/02 13:19:57;;;;;;;;;0.00;0.00;;;;;;;;5037377;28;46224;-76
2024/01/02 13:22:22;;;;;;;;;1.33;1.00;;;;;;;;5035514;28;45298;-76
2024/01/02 13:24:48;;;;;;;;;1.67;1.67;;;;;;;;5038487;28;45481;-76
2024/01/02 13:27:15;;;;;;;;;0.00;0.00;;;;;;;;5034926;28;45389;-76
2024/01/02 13:29:45;;;;;;;;;1.67;0.33;;;;;;;;5039039;28;45473;-76
2024/01/02 13:32:10;;;;;;;;;0.00;0.00;;;;;;;;5036468;28;46126;-76
2024/01/02 13:34:35;;;;;;;;;1.00;1.00;;;;;;;;5039501;28;45296;-76
2024/01/02 13:37:00;;;;;;;;;2.00;1.00;;;;;;;;5033512;28;45269;-75
2024/01/02 13:39:32;;;;;;;;;0.00;0.00;;;;;;;;5039684;28;45386;-76
2024/01/02 13:41:58;;;;;;;;;0.33;0.33;;;;;;;;5033413;28;45453;-76
2024/01/02 13:44:23;;;;;;;;;1.67;1.00;;;;;;;;5037538;28;45272;-76
2024/01/02 13:46:48;;;;;;;;;1.00;0.00;;;;;;;;5031015;28;47095;-76
2024/01/02 13:49:14;;;;;;;;;0.00;0.00;;;;;;;;5039337;28;45247;-75
2024/01/02 13:51:44;;;;;;;;;0.00;0.00;;;;;;;;5034363;28;45380;-76
2024/01/02 13:54:09;;;;;;;;;2.00;0.00;;;;;;;;5038154;28;45433;-76
2024/01/02 13:56:35;;;;;;;;;1.00;1.00;;;;;;;;5034552;28;45160;-77
2024/01/02 13:59:01;;;;;;;;;1.00;0.00;;;;;;;;5038661;28;45435;-76
2024/01/02 14:01:28;;;;;;;;;0.33;0.33;;;;;;;;5034914;28;45726;-77
2024/01/02 14:03:53;;;;;;;;;0.67;0.67;;;;;;;;5038212;28;45458;-76
2024/01/02 14:06:21;;;;;;;;;0.00;0.00;;;;;;;;5036873;28;45379;-76
2024/01/02 14:08:46;;;;;;;;;0.33;0.00;;;;;;;;5039010;28;45446;-76
2024/01/02 14:11:11;;;;;;;;;5.00;1.00;;;;;;;;5035604;28;45485;-77
2024/01/02 14:13:37;;;;;;;;;2.33;1.00;;;;;;;;5039153;28;45409;-76
2024/01/02 14:16:05;;;;;;;;;1.00;1.00;;;;;;;;5036265;28;45278;-76
2024/01/02 14:18:32;;;;;;;;;1.00;1.00;;;;;;;;5039024;28;45169;-76
2024/01/02 14:21:04;;;;;;;;;0.67;0.67;;;;;;;;5033932;28;46157;-76
2024/01/02 14:23:29;;;;;;;;;3.00;1.00;;;;;;;;5036231;28;45263;-77
2024/01/02 14:26:01;;;;;;;;;1.00;1.00;;;;;;;;5032568;28;45249;-76
2024/01/02 14:28:29;;;;;;;;;1.00;1.00;;;;;;;;5036777;28;47213;-76
2024/01/02 14:30:54;;;;;;;;;0.33;0.33;;;;;;;;5031687;28;45471;-76
2024/01/02 14:33:34;;;;;;;;;1.00;1.00;;;;;;;;5039062;28;45431;-76
2024/01/02 14:36:06;;;;;;;;;0.00;0.00;;;;;;;;5027858;28;45900;-76
2024/01/02 14:38:42;;;;;;;;;0.00;0.00;;;;;;;;5038840;28;45469;-77
2024/01/02 14:41:21;;;;;;;;;0.00;0.00;;;;;;;;5035129;28;45425;-76
2024/01/02 14:43:59;;;;;;;;;1.00;1.00;;;;;;;;5038990;28;45367;-76
2024/01/02 14:46:24;;;;;;;;;0.00;0.00;;;;;;;;5032122;28;45210;-76
2024/01/02 14:48:58;;;;;;;;;1.67;1.00;;;;;;;;5038820;28;45129;-76
2024/01/02 14:51:37;;;;;;;;;2.00;1.00;;;;;;;;5033814;28;45412;-76
2024/01/02 14:54:03;;;;;;;;;2.00;1.00;;;;;;;;5038707;28;45355;-76
2024/01/02 14:56:36;;;;;;;;;1.00;1.00;;;;;;;;5033682;28;46044;-76
2024/01/02 14:59:04;;;;;;;;;0.00;0.00;;;;;;;;5038463;28;45512;-76
2024/01/02 15:01:48;;;;;;;;;0.33;0.33;;;;;;;;5044550;28;46718;-76
2024/01/02 15:04:23;;;;;;;;;1.00;1.00;;;;;;;;5054030;28;45480;-76
2024/01/02 15:06:53;;;;;;;;;2.00;1.00;;;;;;;;5037491;28;45347;-76
2024/01/02 15:09:26;;;;;;;;;1.00;1.00;;;;;;;;5033327;28;47123;-76
2024/01/02 15:12:03;;;;;;;;;0.00;0.00;;;;;;;;5036450;28;45421;-75
2024/01/02 15:14:32;;;;;;;;;2.00;0.33;;;;;;;;5052668;28;45225;-76
2024/01/02 15:17:16;;;;;;;;;0.00;0.00;;;;;;;;5034576;28;45416;-76
2024/01/02 15:19:51;;;;;;;;;0.00;0.00;;;;;;;;5030968;28;45647;-76
2024/01/02 15:22:38;;;;;;;;;1.00;0.00;;;;;;;;5037830;28;45400;-75
2024/01/02 15:25:28;;;;;;;;;1.33;1.00;;;;;;;;5038541;28;45489;-76
2024/01/02 15:28:00;;;;;;;;;0.33;0.33;;;;;;;;5039537;28;45158;-76
2024/01/02 15:30:28;;;;;;;;;6.00;2.00;;;;;;;;5037912;28;45352;-76
2024/01/02 15:32:54;;;;;;;;;0.00;0.00;;;;;;;;5039496;28;45209;-76
2024/01/02 15:35:23;;;;;;;;;1.67;1.00;;;;;;;;5038567;28;45442;-75
2024/01/02 15:37:55;;;;;;;;;2.00;0.67;;;;;;;;5039787;28;45522;-75
2024/01/02 15:40:26;;;;;;;;;0.00;0.00;;;;;;;;5038484;28;45420;-75
2024/01/02 15:42:53;;;;;;;;;2.00;1.00;;;;;;;;5038886;28;44701;-75
2024/01/02 15:45:24;;;;;;;;;0.00;0.00;;;;;;;;5038574;28;45522;-75
2024/01/02 15:48:13;;;;;;;;;2.00;0.00;;;;;;;;5033922;28;45900;-75
2024/01/02 15:50:39;;;;;;;;;2.00;1.00;;;;;;;;5039057;28;45365;-75
2024/01/02 15:53:10;;;;;;;;;3.00;0.33;;;;;;;;5041250;28;45382;-75
2024/01/02 15:55:39;;;;;;;;;0.67;0.00;;;;;;;;5038943;28;45513;-75
2024/01/02 15:58:14;;;;;;;;;0.00;0.00;;;;;;;;5041096;28;45532;-75
2024/01/02 16:00:40;;;;;;;;;1.67;0.00;;;;;;;;5038771;28;45602;-75
2024/01/02 16:03:24;;;;;;;;;1.00;1.00;;;;;;;;5041025;28;45220;-75
2024/01/02 16:05:49;;;;;;;;;1.33;1.33;;;;;;;;5039263;28;45438;-75
2024/01/02 16:08:27;;;;;;;;;0.50;0.50;;;;;;;;5037711;28;45197;-74
2024/01/02 16:11:08;;;;;;;;;9.00;7.00;;;;;;;;5034818;28;47188;-75
2024/01/02 16:13:43;;;;;;;;;15.00;13.33;;;;;;;;5037940;28;45627;-75
2024/01/02 16:16:28;;;;;;;;;4.33;4.33;;;;;;;;5035068;28;45561;-75
2024/01/02 16:19:12;;;;;;;;;8.00;7.00;;;;;;;;5040494;28;45247;-75
2024/01/02 16:21:52;;;;;;;;;11.00;11.00;;;;;;;;5037322;28;46281;-75
2024/01/02 16:24:36;;;;;;;;;3.00;3.00;;;;;;;;5039108;28;45283;-75
2024/01/02 16:27:07;;;;;;;;;2.67;2.67;;;;;;;;5038236;28;45376;-75
2024/01/02 16:29:53;;;;;;;;;5.67;5.00;;;;;;;;5038312;28;47053;-75
2024/01/02 16:32:44;;;;;;;;;1.67;1.00;;;;;;;;5050036;28;47423;-75
2024/01/02 16:35:19;;;;;;;;;0.00;0.00;;;;;;;;5039385;28;45260;-76
2024/01/02 16:37:52;;;;;;;;;2.00;2.00;;;;;;;;5036839;28;45223;-75
2024/01/02 16:40:36;;;;;;;;;6.33;5.67;;;;;;;;5037450;28;45343;-76
2024/01/02 16:43:01;;;;;;;;;3.00;3.00;;;;;;;;5038189;28;46897;-76
2024/01/02 16:45:32;;;;;;;;;3.00;2.00;;;;;;;;5036079;28;45214;-76
2024/01/02 16:47:59;;;;;;;;;6.00;5.00;;;;;;;;5038328;28;45298;-75
2024/01/02 16:50:24;;;;;;;;;6.33;4.67;;;;;;;;5036390;28;45576;-75
2024/01/02 16:52:53;;;;;;;;;2.00;2.00;;;;;;;;5037691;28;45423;-74
2024/01/02 16:55:19;;;;;;;;;7.33;4.67;;;;;;;;5037226;28;45330;-74
2024/01/02 16:57:44;;;;;;;;;2.00;2.00;;;;;;;;5038460;28;45708;-74
2024/01/02 17:00:10;;;;;;;;;9.00;8.33;;;;;;;;5038040;28;45494;-76
2024/01/02 17:02:35;;;;;;;;;3.67;3.00;;;;;;;;5038600;28;45658;-74
2024/01/02 17:05:03;;;;;;;;;3.00;3.00;;;;;;;;5036465;28;45660;-75
2024/01/02 17:07:31;;;;;;;;;5.00;5.00;;;;;;;;5054703;28;45430;-75
2024/01/02 17:09:56;;;;;;;;;5.00;5.00;;;;;;;;5037257;28;45240;-75
2024/01/02 17:12:21;;;;;;;;;2.33;2.33;;;;;;;;5032780;28;46097;-76
2024/01/02 17:14:49;;;;;;;;;3.00;3.00;;;;;;;;5038894;28;45337;-75
2024/01/02 17:17:14;;;;;;;;;1.00;1.00;;;;;;;;5033750;28;45448;-75
2024/01/02 17:19:40;;;;;;;;;6.00;6.00;;;;;;;;5039629;28;45284;-75
2024/01/02 17:22:08;;;;;;;;;1.00;1.00;;;;;;;;5033172;28;45449;-75
2024/01/02 17:24:33;;;;;;;;;9.67;7.67;;;;;;;;5037103;28;45418;-75
2024/01/02 17:26:59;;;;;;;;;14.00;12.67;;;;;;;;5046042;28;45011;-74
2024/01/02 17:29:24;;;;;;;;;7.67;6.33;;;;;;;;5039250;28;45283;-75
2024/01/02 17:31:51;;;;;;;;;8.00;8.00;;;;;;;;5032536;28;46008;-75
2024/01/02 17:34:17;;;;;;;;;17.33;16.33;;;;;;;;5039558;28;45897;-76
2024/01/02 17:36:43;;;;;;;;;14.67;14.33;;;;;;;;5032972;28;45386;-76
2024/01/02 17:39:08;;;;;;;;;9.67;8.00;;;;;;;;5038018;28;45526;-75
2024/01/02 17:41:33;;;;;;;;;2.00;1.67;;;;;;;;5035859;28;45464;-76
2024/01/02 17:43:59;;;;;;;;;2.00;2.00;;;;;;;;5038633;28;45363;-75
2024/01/02 17:46:35;;;;;;;;;3.00;2.00;;;;;;;;5036170;28;45372;-75
2024/01/02 17:49:01;;;;;;;;;3.00;1.00;;;;;;;;5038945;28;45346;-76
2024/01/02 17:51:27;;;;;;;;;2.00;1.33;;;;;;;;5033572;28;45929;-76
2024/01/02 17:53:54;;;;;;;;;0.00;0.00;;;;;;;;5039385;28;45289;-76
2024/01/02 17:56:19;;;;;;;;;2.33;2.00;;;;;;;;5034486;28;45301;-76
2024/01/02 17:58:54;;;;;;;;;4.67;3.00;;;;;;;;5038922;28;45146;-76
2024/01/02 18:01:23;;;;;;;;;4.33;3.00;;;;;;;;5035621;28;45295;-76
2024/01/02 18:04:04;;;;;;;;;7.00;5.67;;;;;;;;5038137;28;45569;-77
2024/01/02 18:06:38;;;;;;;;;6.33;4.00;;;;;;;;5046216;28;45521;-76
2024/01/02 18:09:15;;;;;;;;;4.33;4.00;;;;;;;;5040246;28;45278;-76
2024/01/02 18:11:41;;;;;;;;;8.33;8.00;;;;;;;;5040135;28;45161;-76
2024/01/02 18:14:10;;;;;;;;;21.67;16.33;;;;;;;;5049882;28;45184;-76
2024/01/02 18:16:35;;;;;;;;;21.00;18.67;;;;;;;;5034998;28;44866;-76
2024/01/02 18:19:04;;;;;;;;;5.33;5.33;;;;;;;;5055864;28;45952;-76
2024/01/02 18:21:41;;;;;;;;;4.00;3.00;;;;;;;;5032337;28;46517;-76
2024/01/02 18:24:20;;;;;;;;;16.00;13.00;;;;;;;;5041300;28;45231;-78
2024/01/02 18:26:54;;;;;;;;;6.33;6.00;;;;;;;;5048089;28;45300;-75
2024/01/02 18:29:23;;;;;;;;;1.00;1.00;;;;;;;;5037223;28;45272;-76
2024/01/02 18:32:07;;;;;;;;;1.00;0.33;;;;;;;;5037544;28;62719;-75
2024/01/02 18:34:39;;;;;;;;;2.67;1.00;;;;;;;;5051396;28;45378;-75
2024/01/02 18:37:14;;;;;;;;;5.67;4.00;;;;;;;;5034876;28;45359;-75
2024/01/02 18:39:43;;;;;;;;;5.00;2.00;;;;;;;;5045770;28;45522;-74
2024/01/02 18:42:12;;;;;;;;;2.00;2.00;;;;;;;;5047988;28;49674;-75
2024/01/02 18:44:37;;;;;;;;;1.33;1.33;;;;;;;;5043993;28;45445;-76
2024/01/02 18:47:06;;;;;;;;;2.75;2.75;;;;;;;;5040297;28;45410;-75
2024/01/02 18:49:31;;;;;;;;;3.00;3.00;;;;;;;;5042978;28;45413;-75
2024/01/02 18:52:11;;;;;;;;;2.67;2.67;;;;;;;;5036328;28;45435;-73
2024/01/02 18:54:43;;;;;;;;;4.33;2.00;;;;;;;;5040231;28;45273;-73
2024/01/02 18:57:08;;;;;;;;;7.00;4.00;;;;;;;;5043028;28;45455;-72
2024/01/02 18:59:33;;;;;;;;;3.33;1.67;;;;;;;;5044360;28;45283;-73
2024/01/02 19:01:59;;;;;;;;;5.67;3.67;;;;;;;;5041488;28;46063;-75
2024/01/02 19:04:25;;;;;;;;;2.67;2.00;;;;;;;;5044421;28;45295;-76
2024/01/02 19:06:50;;;;;;;;;5.33;4.00;;;;;;;;5036149;28;45273;-75
2024/01/02 19:09:24;;;;;;;;;2.00;1.00;;;;;;;;5037555;28;45699;-77
2024/01/02 19:12:00;;;;;;;;;4.00;2.67;;;;;;;;5037564;28;45580;-76
2024/01/02 19:14:26;;;;;;;;;7.67;5.67;;;;;;;;5036318;28;45276;-75
2024/01/02 19:16:51;;;;;;;;;3.00;2.67;;;;;;;;5035262;28;45391;-75
2024/01/02 19:19:16;;;;;;;;;7.67;7.67;;;;;;;;5043974;28;45518;-75
2024/01/02 19:21:42;;;;;;;;;1.33;1.33;;;;;;;;5038624;28;45241;-76
2024/01/02 19:24:08;;;;;;;;;8.33;8.33;;;;;;;;5040069;28;45257;-74
2024/01/02 19:26:37;;;;;;;;;2.00;1.00;;;;;;;;5038868;28;45346;-74
2024/01/02 19:29:02;;;;;;;;;4.33;3.00;;;;;;;;5041730;28;46043;-74
2024/01/02 19:31:28;;;;;;;;;3.00;2.00;;;;;;;;5037743;28;46500;-74
2024/01/02 19:33:57;;;;;;;;;6.00;6.00;;;;;;;;5043440;28;45296;-73
2024/01/02 19:36:22;;;;;;;;;1.33;1.33;;;;;;;;5035863;28;45229;-73
2024/01/02 19:38:47;;;;;;;;;10.67;7.33;;;;;;;;5043285;28;45276;-73
2024/01/02 19:41:13;;;;;;;;;3.67;3.67;;;;;;;;5037130;28;45205;-73
2024/01/02 19:43:38;;;;;;;;;5.00;3.00;;;;;;;;5042029;28;45386;-73
2024/01/02 19:46:04;;;;;;;;;2.00;2.00;;;;;;;;5041030;28;45959;-73
2024/01/02 19:48:30;;;;;;;;;2.00;2.00;;;;;;;;5041138;28;45477;-74
2024/01/02 19:50:55;;;;;;;;;4.00;2.33;;;;;;;;5038376;28;47043;-73
2024/01/02 19:53:20;;;;;;;;;2.67;1.00;;;;;;;;5039974;28;45385;-74
2024/01/02 19:55:46;;;;;;;;;2.00;2.00;;;;;;;;5041732;28;45664;-73
2024/01/02 19:58:12;;;;;;;;;4.33;1.67;;;;;;;;5042083;28;45497;-74
2024/01/02 20:00:37;;;;;;;;;19.50;15.00;;;;;;;;5040950;28;45400;-73
2024/01/02 20:03:03;;;;;;;;;3.00;2.33;;;;;;;;5038683;28;45419;-74
2024/01/02 20:05:33;;;;;;;;;9.67;6.00;;;;;;;;5042105;28;45386;-74
2024/01/02 20:08:07;;;;;;;;;8.00;4.00;;;;;;;;5048583;28;45843;-73
2024/01/02 20:10:32;;;;;;;;;5.00;4.00;;;;;;;;5040840;28;46184;-73
2024/01/02 20:12:58;;;;;;;;;4.33;3.00;;;;;;;;5035717;28;45166;-73
2024/01/02 20:15:25;;;;;;;;;3.00;3.00;;;;;;;;5052805;28;45461;-73
2024/01/02 20:18:00;;;;;;;;;5.67;4.67;;;;;;;;5038595;28;45576;-73
2024/01/02 20:20:37;;;;;;;;;7.00;4.00;;;;;;;;5039108;28;45489;-75
2024/01/02 20:23:06;;;;;;;;;9.00;4.00;;;;;;;;5038595;28;45394;-74
2024/01/02 20:25:47;;;;;;;;;8.00;5.67;;;;;;;;5037530;28;45438;-74
2024/01/02 20:28:12;;;;;;;;;21.50;16.00;;;;;;;;5041568;28;45565;-74
2024/01/02 20:30:38;;;;;;;;;20.00;17.00;;;;;;;;5035927;28;46200;-75
2024/01/02 20:33:04;;;;;;;;;9.67;9.67;;;;;;;;5039973;28;45280;-75
2024/01/02 20:35:31;;;;;;;;;5.67;2.67;;;;;;;;5037798;28;45283;-75
2024/01/02 20:37:57;;;;;;;;;5.00;5.00;;;;;;;;5039326;28;45212;-73
2024/01/02 20:40:36;;;;;;;;;16.00;10.00;;;;;;;;5038428;28;46674;-74
2024/01/02 20:43:21;;;;;;;;;11.67;7.00;;;;;;;;5039657;28;45260;-74
2024/01/02 20:45:47;;;;;;;;;28.50;23.00;;;;;;;;5035467;28;45372;-73
2024/01/02 20:48:13;;;;;;;;;7.00;5.33;;;;;;;;5039360;28;45582;-73
2024/01/02 20:50:39;;;;;;;;;5.33;4.67;;;;;;;;5039698;28;45390;-73
2024/01/02 20:53:22;;;;;;;;;9.67;5.00;;;;;;;;5039124;28;45347;-73
2024/01/02 20:55:47;;;;;;;;;6.00;5.00;;;;;;;;5040158;28;45410;-73
2024/01/02 20:58:32;;;;;;;;;18.25;13.25;;;;;;;;5041707;28;45431;-73
2024/01/02 21:00:58;;;;;;;;;19.50;17.25;;;;;;;;5038311;28;45572;-75
2024/01/02 21:03:23;;;;;;;;;9.67;6.00;;;;;;;;5042680;28;45480;-75
2024/01/02 21:05:48;;;;;;;;;9.67;8.00;;;;;;;;5041768;28;45421;-74
2024/01/02 21:08:29;;;;;;;;;6.00;4.67;;;;;;;;5037370;28;45557;-75
2024/01/02 21:10:56;;;;;;;;;11.00;9.00;;;;;;;;5038402;28;45559;-75
2024/01/02 21:13:29;;;;;;;;;17.00;9.00;;;;;;;;5045250;28;45367;-75
2024/01/02 21:15:54;;;;;;;;;15.25;10.75;;;;;;;;5035514;28;45553;-74
2024/01/02 21:18:53;;;;;;;;;7.00;3.00;;;;;;;;5041800;28;45394;-74
2024/01/02 21:21:40;;;;;;;;;6.33;4.00;;;;;;;;5044746;28;45248;-74
2024/01/02 21:24:08;;;;;;;;;8.33;4.00;;;;;;;;5047164;28;45584;-74
2024/01/02 21:26:34;;;;;;;;;5.67;3.67;;;;;;;;5036281;28;45575;-75
2024/01/02 21:28:59;;;;;;;;;7.33;4.67;;;;;;;;5042697;28;45393;-75
2024/01/02 21:31:24;;;;;;;;;5.67;3.00;;;;;;;;5041497;28;45342;-74
2024/01/02 21:33:49;;;;;;;;;7.33;4.00;;;;;;;;5044329;28;45240;-75
2024/01/02 21:36:15;;;;;;;;;6.00;4.00;;;;;;;;5045420;28;45307;-74
2024/01/02 21:38:40;;;;;;;;;4.33;4.33;;;;;;;;5040899;28;45354;-74
2024/01/02 21:41:12;;;;;;;;;58.00;42.50;;;;;;;;5036172;28;45398;-75
2024/01/02 21:43:38;;;;;;;;;9.33;7.33;;;;;;;;5040020;28;45280;-75
2024/01/02 21:46:03;;;;;;;;;7.67;3.00;;;;;;;;5037137;28;44809;-75
2024/01/02 21:48:40;;;;;;;;;6.67;6.00;;;;;;;;5039491;28;45215;-74
2024/01/02 21:51:06;;;;;;;;;5.00;2.00;;;;;;;;5039516;28;46497;-74
